sensor_id;sensor_type;location;lat;lon;timestamp;P1;durP1;ratioP1;P2;durP2;ratioP2
67941;SDS011;54731;42.600;23.476;2023-10-31T00:00:22;7.40;;;2.22;;
67941;SDS011;54731;42.600;23.476;2023-10-31T00:02:48;5.03;;;1.98;;
67941;SDS011;54731;42.600;23.476;2023-10-31T00:05:14;7.53;;;2.03;;
67941;SDS011;54731;42.600;23.476;2023-10-31T00:07:39;4.97;;;1.90;;
67941;SDS011;54731;42.600;23.476;2023-10-31T00:10:05;9.70;;;2.63;;
67941;SDS011;54731;42.600;23.476;2023-10-31T00:12:30;7.30;;;2.60;;
67941;SDS011;54731;42.600;23.476;2023-10-31T00:14:56;7.43;;;2.20;;
67941;SDS011;54731;42.600;23.476;2023-10-31T00:17:22;6.27;;;2.40;;
67941;SDS011;54731;42.600;23.476;2023-10-31T00:19:47;6.70;;;2.87;;
67941;SDS011;54731;42.600;23.476;2023-10-31T00:22:12;6.77;;;2.80;;
67941;SDS011;54731;42.600;23.476;2023-10-31T00:24:38;8.20;;;2.83;;
67941;SDS011;54731;42.600;23.476;2023-10-31T00:27:03;5.10;;;2.53;;
67941;SDS011;54731;42.600;23.476;2023-10-31T00:29:28;6.45;;;2.00;;
67941;SDS011;54731;42.600;23.476;2023-10-31T00:31:54;7.37;;;2.30;;
67941;SDS011;54731;42.600;23.476;2023-10-31T00:34:19;7.37;;;2.27;;
67941;SDS011;54731;42.600;23.476;2023-10-31T00:36:45;5.35;;;2.20;;
67941;SDS011;54731;42.600;23.476;2023-10-31T00:39:10;4.87;;;2.13;;
67941;SDS011;54731;42.600;23.476;2023-10-31T00:41:36;7.23;;;2.47;;
67941;SDS011;54731;42.600;23.476;2023-10-31T00:44:02;8.07;;;2.22;;
67941;SDS011;54731;42.600;23.476;2023-10-31T00:46:28;5.83;;;2.53;;
67941;SDS011;54731;42.600;23.476;2023-10-31T00:48:53;7.07;;;2.10;;
67941;SDS011;54731;42.600;23.476;2023-10-31T00:51:18;7.03;;;2.33;;
67941;SDS011;54731;42.600;23.476;2023-10-31T00:53:43;4.87;;;1.80;;
67941;SDS011;54731;42.600;23.476;2023-10-31T00:56:09;5.17;;;1.77;;
67941;SDS011;54731;42.600;23.476;2023-10-31T00:58:34;4.47;;;1.93;;
67941;SDS011;54731;42.600;23.476;2023-10-31T01:00:59;4.40;;;1.63;;
67941;SDS011;54731;42.600;23.476;2023-10-31T01:03:25;4.83;;;1.73;;
67941;SDS011;54731;42.600;23.476;2023-10-31T01:05:50;6.20;;;1.83;;
67941;SDS011;54731;42.600;23.476;2023-10-31T01:08:15;5.50;;;2.10;;
67941;SDS011;54731;42.600;23.476;2023-10-31T01:10:40;4.17;;;1.83;;
67941;SDS011;54731;42.600;23.476;2023-10-31T01:13:06;4.67;;;2.17;;
67941;SDS011;54731;42.600;23.476;2023-10-31T01:15:31;4.67;;;1.93;;
67941;SDS011;54731;42.600;23.476;2023-10-31T01:17:56;5.03;;;1.80;;
67941;SDS011;54731;42.600;23.476;2023-10-31T01:20:22;5.77;;;2.00;;
67941;SDS011;54731;42.600;23.476;2023-10-31T01:22:47;5.60;;;2.07;;
67941;SDS011;54731;42.600;23.476;2023-10-31T01:25:12;3.40;;;1.43;;
67941;SDS011;54731;42.600;23.476;2023-10-31T01:27:38;11.27;;;2.17;;
67941;SDS011;54731;42.600;23.476;2023-10-31T01:30:03;3.75;;;2.03;;
67941;SDS011;54731;42.600;23.476;2023-10-31T01:32:28;4.27;;;1.70;;
67941;SDS011;54731;42.600;23.476;2023-10-31T01:34:54;3.93;;;1.90;;
67941;SDS011;54731;42.600;23.476;2023-10-31T01:37:19;6.97;;;2.30;;
67941;SDS011;54731;42.600;23.476;2023-10-31T01:39:45;5.33;;;1.80;;
67941;SDS011;54731;42.600;23.476;2023-10-31T01:42:13;5.30;;;1.60;;
67941;SDS011;54731;42.600;23.476;2023-10-31T01:44:38;5.65;;;2.10;;
67941;SDS011;54731;42.600;23.476;2023-10-31T01:47:04;8.15;;;2.00;;
67941;SDS011;54731;42.600;23.476;2023-10-31T01:49:29;3.63;;;2.03;;
67941;SDS011;54731;42.600;23.476;2023-10-31T01:51:54;6.50;;;2.27;;
67941;SDS011;54731;42.600;23.476;2023-10-31T01:54:20;8.17;;;2.30;;
67941;SDS011;54731;42.600;23.476;2023-10-31T01:56:45;3.85;;;1.38;;
67941;SDS011;54731;42.600;23.476;2023-10-31T01:59:11;11.83;;;1.97;;
67941;SDS011;54731;42.600;23.476;2023-10-31T02:01:38;5.18;;;1.67;;
67941;SDS011;54731;42.600;23.476;2023-10-31T02:04:04;5.23;;;1.47;;
67941;SDS011;54731;42.600;23.476;2023-10-31T02:06:29;6.00;;;1.70;;
67941;SDS011;54731;42.600;23.476;2023-10-31T02:08:54;6.33;;;2.30;;
67941;SDS011;54731;42.600;23.476;2023-10-31T02:11:20;2.67;;;1.53;;
67941;SDS011;54731;42.600;23.476;2023-10-31T02:13:45;3.67;;;1.70;;
67941;SDS011;54731;42.600;23.476;2023-10-31T02:16:10;7.10;;;1.70;;
67941;SDS011;54731;42.600;23.476;2023-10-31T02:18:35;2.60;;;1.87;;
67941;SDS011;54731;42.600;23.476;2023-10-31T02:21:01;5.17;;;2.00;;
67941;SDS011;54731;42.600;23.476;2023-10-31T02:23:26;4.45;;;1.60;;
67941;SDS011;54731;42.600;23.476;2023-10-31T02:25:51;7.20;;;1.92;;
67941;SDS011;54731;42.600;23.476;2023-10-31T02:28:17;5.13;;;1.83;;
67941;SDS011;54731;42.600;23.476;2023-10-31T02:30:42;5.10;;;1.80;;
67941;SDS011;54731;42.600;23.476;2023-10-31T02:33:08;3.10;;;2.07;;
67941;SDS011;54731;42.600;23.476;2023-10-31T02:35:33;5.43;;;2.07;;
67941;SDS011;54731;42.600;23.476;2023-10-31T02:37:58;4.50;;;2.00;;
67941;SDS011;54731;42.600;23.476;2023-10-31T02:40:24;3.50;;;2.10;;
67941;SDS011;54731;42.600;23.476;2023-10-31T02:42:49;8.55;;;2.30;;
67941;SDS011;54731;42.600;23.476;2023-10-31T02:45:14;7.33;;;2.77;;
67941;SDS011;54731;42.600;23.476;2023-10-31T02:47:40;6.93;;;2.40;;
67941;SDS011;54731;42.600;23.476;2023-10-31T02:50:05;6.93;;;3.13;;
67941;SDS011;54731;42.600;23.476;2023-10-31T02:52:31;8.82;;;3.25;;
67941;SDS011;54731;42.600;23.476;2023-10-31T02:54:56;8.00;;;2.80;;
67941;SDS011;54731;42.600;23.476;2023-10-31T02:57:22;5.73;;;3.00;;
67941;SDS011;54731;42.600;23.476;2023-10-31T02:59:47;8.87;;;2.70;;
67941;SDS011;54731;42.600;23.476;2023-10-31T03:02:12;10.33;;;2.80;;
67941;SDS011;54731;42.600;23.476;2023-10-31T03:04:38;8.80;;;2.58;;
67941;SDS011;54731;42.600;23.476;2023-10-31T03:07:03;6.47;;;2.90;;
67941;SDS011;54731;42.600;23.476;2023-10-31T03:09:29;6.43;;;3.00;;
67941;SDS011;54731;42.600;23.476;2023-10-31T03:11:54;7.87;;;3.03;;
67941;SDS011;54731;42.600;23.476;2023-10-31T03:14:19;6.23;;;3.00;;
67941;SDS011;54731;42.600;23.476;2023-10-31T03:16:44;9.43;;;3.70;;
67941;SDS011;54731;42.600;23.476;2023-10-31T03:19:10;7.00;;;3.20;;
67941;SDS011;54731;42.600;23.476;2023-10-31T03:21:35;9.13;;;3.47;;
67941;SDS011;54731;42.600;23.476;2023-10-31T03:24:00;7.17;;;3.07;;
67941;SDS011;54731;42.600;23.476;2023-10-31T03:26:26;7.97;;;3.50;;
67941;SDS011;54731;42.600;23.476;2023-10-31T03:28:51;12.83;;;3.07;;
67941;SDS011;54731;42.600;23.476;2023-10-31T03:31:16;7.50;;;3.40;;
67941;SDS011;54731;42.600;23.476;2023-10-31T03:33:42;11.87;;;3.53;;
67941;SDS011;54731;42.600;23.476;2023-10-31T03:36:08;7.37;;;3.27;;
67941;SDS011;54731;42.600;23.476;2023-10-31T03:38:34;11.27;;;3.28;;
67941;SDS011;54731;42.600;23.476;2023-10-31T03:41:00;5.05;;;2.30;;
67941;SDS011;54731;42.600;23.476;2023-10-31T03:43:26;3.80;;;1.95;;
67941;SDS011;54731;42.600;23.476;2023-10-31T03:45:51;7.00;;;2.60;;
67941;SDS011;54731;42.600;23.476;2023-10-31T03:48:17;8.38;;;2.40;;
67941;SDS011;54731;42.600;23.476;2023-10-31T03:50:42;5.30;;;2.15;;
67941;SDS011;54731;42.600;23.476;2023-10-31T03:53:08;5.40;;;2.37;;
67941;SDS011;54731;42.600;23.476;2023-10-31T03:55:33;4.77;;;2.17;;
67941;SDS011;54731;42.600;23.476;2023-10-31T03:57:59;6.90;;;2.00;;
67941;SDS011;54731;42.600;23.476;2023-10-31T04:00:24;3.77;;;1.73;;
67941;SDS011;54731;42.600;23.476;2023-10-31T04:02:49;4.30;;;2.00;;
67941;SDS011;54731;42.600;23.476;2023-10-31T04:05:15;7.60;;;3.10;;
67941;SDS011;54731;42.600;23.476;2023-10-31T04:07:40;8.13;;;2.40;;
67941;SDS011;54731;42.600;23.476;2023-10-31T04:10:05;7.17;;;3.03;;
67941;SDS011;54731;42.600;23.476;2023-10-31T04:12:31;11.05;;;3.97;;
67941;SDS011;54731;42.600;23.476;2023-10-31T04:14:57;11.87;;;5.00;;
67941;SDS011;54731;42.600;23.476;2023-10-31T04:17:22;10.50;;;5.20;;
67941;SDS011;54731;42.600;23.476;2023-10-31T04:19:47;9.80;;;4.40;;
67941;SDS011;54731;42.600;23.476;2023-10-31T04:22:13;11.03;;;4.03;;
67941;SDS011;54731;42.600;23.476;2023-10-31T04:24:38;6.47;;;3.00;;
67941;SDS011;54731;42.600;23.476;2023-10-31T04:27:03;6.63;;;2.90;;
67941;SDS011;54731;42.600;23.476;2023-10-31T04:29:29;8.88;;;2.55;;
67941;SDS011;54731;42.600;23.476;2023-10-31T04:31:54;6.23;;;2.27;;
67941;SDS011;54731;42.600;23.476;2023-10-31T04:34:19;4.93;;;2.13;;
67941;SDS011;54731;42.600;23.476;2023-10-31T04:36:45;14.40;;;5.07;;
67941;SDS011;54731;42.600;23.476;2023-10-31T04:39:10;7.53;;;1.83;;
67941;SDS011;54731;42.600;23.476;2023-10-31T04:41:35;6.20;;;2.40;;
67941;SDS011;54731;42.600;23.476;2023-10-31T04:44:01;5.63;;;2.60;;
67941;SDS011;54731;42.600;23.476;2023-10-31T04:46:26;5.60;;;1.90;;
67941;SDS011;54731;42.600;23.476;2023-10-31T04:48:51;5.40;;;1.60;;
67941;SDS011;54731;42.600;23.476;2023-10-31T04:51:17;3.87;;;1.67;;
67941;SDS011;54731;42.600;23.476;2023-10-31T04:53:42;7.77;;;2.50;;
67941;SDS011;54731;42.600;23.476;2023-10-31T04:56:12;7.70;;;2.60;;
67941;SDS011;54731;42.600;23.476;2023-10-31T04:58:37;5.25;;;2.25;;
67941;SDS011;54731;42.600;23.476;2023-10-31T05:01:03;7.77;;;2.60;;
67941;SDS011;54731;42.600;23.476;2023-10-31T05:03:33;6.55;;;2.00;;
67941;SDS011;54731;42.600;23.476;2023-10-31T05:05:58;8.47;;;2.53;;
67941;SDS011;54731;42.600;23.476;2023-10-31T05:08:23;10.00;;;2.33;;
67941;SDS011;54731;42.600;23.476;2023-10-31T05:10:49;6.23;;;1.83;;
67941;SDS011;54731;42.600;23.476;2023-10-31T05:13:14;7.37;;;2.43;;
67941;SDS011;54731;42.600;23.476;2023-10-31T05:15:39;7.10;;;2.43;;
67941;SDS011;54731;42.600;23.476;2023-10-31T05:18:05;5.33;;;2.23;;
67941;SDS011;54731;42.600;23.476;2023-10-31T05:20:30;9.30;;;2.67;;
67941;SDS011;54731;42.600;23.476;2023-10-31T05:22:55;5.85;;;2.78;;
67941;SDS011;54731;42.600;23.476;2023-10-31T05:25:20;5.57;;;2.80;;
67941;SDS011;54731;42.600;23.476;2023-10-31T05:27:46;5.83;;;2.37;;
67941;SDS011;54731;42.600;23.476;2023-10-31T05:30:13;7.83;;;2.73;;
67941;SDS011;54731;42.600;23.476;2023-10-31T05:32:38;6.18;;;2.60;;
67941;SDS011;54731;42.600;23.476;2023-10-31T05:35:04;7.53;;;3.07;;
67941;SDS011;54731;42.600;23.476;2023-10-31T05:37:29;8.70;;;2.90;;
67941;SDS011;54731;42.600;23.476;2023-10-31T05:39:54;6.50;;;3.30;;
67941;SDS011;54731;42.600;23.476;2023-10-31T05:42:20;7.93;;;3.03;;
67941;SDS011;54731;42.600;23.476;2023-10-31T05:44:45;5.82;;;4.50;;
67941;SDS011;54731;42.600;23.476;2023-10-31T05:47:10;5.27;;;2.70;;
67941;SDS011;54731;42.600;23.476;2023-10-31T05:49:36;8.87;;;2.23;;
67941;SDS011;54731;42.600;23.476;2023-10-31T05:52:01;4.53;;;1.27;;
67941;SDS011;54731;42.600;23.476;2023-10-31T05:54:26;11.47;;;5.27;;
67941;SDS011;54731;42.600;23.476;2023-10-31T05:56:51;11.97;;;5.20;;
67941;SDS011;54731;42.600;23.476;2023-10-31T05:59:17;14.10;;;5.63;;
67941;SDS011;54731;42.600;23.476;2023-10-31T06:01:42;17.37;;;7.40;;
67941;SDS011;54731;42.600;23.476;2023-10-31T06:04:07;14.27;;;6.27;;
67941;SDS011;54731;42.600;23.476;2023-10-31T06:06:33;9.60;;;5.03;;
67941;SDS011;54731;42.600;23.476;2023-10-31T06:08:58;11.80;;;6.88;;
67941;SDS011;54731;42.600;23.476;2023-10-31T06:11:23;13.20;;;5.83;;
67941;SDS011;54731;42.600;23.476;2023-10-31T06:13:49;11.17;;;4.90;;
67941;SDS011;54731;42.600;23.476;2023-10-31T06:16:14;12.27;;;4.60;;
67941;SDS011;54731;42.600;23.476;2023-10-31T06:18:39;10.17;;;4.40;;
67941;SDS011;54731;42.600;23.476;2023-10-31T06:21:04;10.53;;;5.50;;
67941;SDS011;54731;42.600;23.476;2023-10-31T06:23:30;14.20;;;5.30;;
67941;SDS011;54731;42.600;23.476;2023-10-31T06:43:29;18.23;;;10.05;;
67941;SDS011;54731;42.600;23.476;2023-10-31T06:45:54;20.40;;;9.80;;
67941;SDS011;54731;42.600;23.476;2023-10-31T06:48:20;17.92;;;9.82;;
67941;SDS011;54731;42.600;23.476;2023-10-31T06:50:45;22.03;;;9.40;;
67941;SDS011;54731;42.600;23.476;2023-10-31T06:53:10;14.70;;;8.77;;
67941;SDS011;54731;42.600;23.476;2023-10-31T06:55:35;17.73;;;9.70;;
67941;SDS011;54731;42.600;23.476;2023-10-31T06:58:01;19.10;;;9.83;;
67941;SDS011;54731;42.600;23.476;2023-10-31T07:00:27;17.63;;;9.70;;
67941;SDS011;54731;42.600;23.476;2023-10-31T07:02:52;16.77;;;9.70;;
67941;SDS011;54731;42.600;23.476;2023-10-31T07:05:17;19.03;;;9.53;;
67941;SDS011;54731;42.600;23.476;2023-10-31T07:07:43;16.13;;;9.80;;
67941;SDS011;54731;42.600;23.476;2023-10-31T07:10:08;17.23;;;8.70;;
67941;SDS011;54731;42.600;23.476;2023-10-31T07:12:33;14.02;;;7.32;;
67941;SDS011;54731;42.600;23.476;2023-10-31T07:14:59;11.33;;;5.40;;
67941;SDS011;54731;42.600;23.476;2023-10-31T07:17:25;15.00;;;5.87;;
67941;SDS011;54731;42.600;23.476;2023-10-31T07:19:51;10.90;;;5.43;;
67941;SDS011;54731;42.600;23.476;2023-10-31T07:22:16;17.93;;;8.37;;
67941;SDS011;54731;42.600;23.476;2023-10-31T07:24:41;16.37;;;8.63;;
67941;SDS011;54731;42.600;23.476;2023-10-31T07:27:07;19.73;;;9.73;;
67941;SDS011;54731;42.600;23.476;2023-10-31T07:29:32;20.00;;;10.10;;
67941;SDS011;54731;42.600;23.476;2023-10-31T07:31:57;16.43;;;8.43;;
67941;SDS011;54731;42.600;23.476;2023-10-31T07:34:23;15.93;;;6.90;;
67941;SDS011;54731;42.600;23.476;2023-10-31T07:36:48;15.70;;;8.90;;
67941;SDS011;54731;42.600;23.476;2023-10-31T07:39:13;20.70;;;10.15;;
67941;SDS011;54731;42.600;23.476;2023-10-31T07:41:38;17.67;;;9.03;;
67941;SDS011;54731;42.600;23.476;2023-10-31T07:44:04;27.27;;;9.33;;
67941;SDS011;54731;42.600;23.476;2023-10-31T07:46:29;13.70;;;9.03;;
67941;SDS011;54731;42.600;23.476;2023-10-31T07:48:54;17.97;;;10.40;;
67941;SDS011;54731;42.600;23.476;2023-10-31T07:51:20;16.47;;;9.10;;
67941;SDS011;54731;42.600;23.476;2023-10-31T07:53:45;17.90;;;9.80;;
67941;SDS011;54731;42.600;23.476;2023-10-31T07:56:17;21.67;;;9.47;;
67941;SDS011;54731;42.600;23.476;2023-10-31T07:58:43;17.40;;;9.70;;
67941;SDS011;54731;42.600;23.476;2023-10-31T08:01:08;22.37;;;10.17;;
67941;SDS011;54731;42.600;23.476;2023-10-31T08:03:34;15.63;;;9.05;;
67941;SDS011;54731;42.600;23.476;2023-10-31T08:05:59;18.13;;;9.52;;
67941;SDS011;54731;42.600;23.476;2023-10-31T08:08:24;25.43;;;8.87;;
67941;SDS011;54731;42.600;23.476;2023-10-31T08:10:50;19.63;;;9.80;;
67941;SDS011;54731;42.600;23.476;2023-10-31T08:13:15;17.87;;;9.60;;
67941;SDS011;54731;42.600;23.476;2023-10-31T08:15:40;14.67;;;9.83;;
67941;SDS011;54731;42.600;23.476;2023-10-31T08:18:05;19.37;;;9.43;;
67941;SDS011;54731;42.600;23.476;2023-10-31T08:20:31;19.83;;;9.20;;
67941;SDS011;54731;42.600;23.476;2023-10-31T08:22:56;19.30;;;8.73;;
67941;SDS011;54731;42.600;23.476;2023-10-31T08:25:21;21.67;;;9.60;;
67941;SDS011;54731;42.600;23.476;2023-10-31T08:27:47;16.55;;;8.90;;
67941;SDS011;54731;42.600;23.476;2023-10-31T08:30:12;16.88;;;8.25;;
67941;SDS011;54731;42.600;23.476;2023-10-31T08:32:37;18.37;;;7.77;;
67941;SDS011;54731;42.600;23.476;2023-10-31T08:35:02;17.30;;;7.80;;
67941;SDS011;54731;42.600;23.476;2023-10-31T08:37:28;22.80;;;8.60;;
67941;SDS011;54731;42.600;23.476;2023-10-31T08:39:53;15.97;;;7.63;;
67941;SDS011;54731;42.600;23.476;2023-10-31T08:42:18;16.23;;;7.97;;
67941;SDS011;54731;42.600;23.476;2023-10-31T08:44:44;14.50;;;7.20;;
67941;SDS011;54731;42.600;23.476;2023-10-31T08:47:09;15.50;;;7.73;;
67941;SDS011;54731;42.600;23.476;2023-10-31T08:49:34;16.08;;;8.13;;
67941;SDS011;54731;42.600;23.476;2023-10-31T08:52:00;15.47;;;7.20;;
67941;SDS011;54731;42.600;23.476;2023-10-31T08:54:25;15.87;;;8.10;;
67941;SDS011;54731;42.600;23.476;2023-10-31T08:56:50;14.50;;;7.80;;
67941;SDS011;54731;42.600;23.476;2023-10-31T08:59:15;15.97;;;6.83;;
67941;SDS011;54731;42.600;23.476;2023-10-31T09:01:41;18.73;;;7.30;;
67941;SDS011;54731;42.600;23.476;2023-10-31T09:04:06;14.20;;;6.27;;
67941;SDS011;54731;42.600;23.476;2023-10-31T09:06:31;12.63;;;6.27;;
67941;SDS011;54731;42.600;23.476;2023-10-31T09:08:57;11.70;;;6.33;;
67941;SDS011;54731;42.600;23.476;2023-10-31T09:11:22;15.23;;;6.37;;
67941;SDS011;54731;42.600;23.476;2023-10-31T09:13:47;11.80;;;5.53;;
67941;SDS011;54731;42.600;23.476;2023-10-31T09:16:12;13.93;;;5.90;;
67941;SDS011;54731;42.600;23.476;2023-10-31T09:18:38;17.23;;;5.77;;
67941;SDS011;54731;42.600;23.476;2023-10-31T09:21:03;8.50;;;4.93;;
67941;SDS011;54731;42.600;23.476;2023-10-31T09:23:29;14.40;;;5.97;;
67941;SDS011;54731;42.600;23.476;2023-10-31T09:25:54;11.50;;;5.70;;
67941;SDS011;54731;42.600;23.476;2023-10-31T09:28:19;14.00;;;5.60;;
67941;SDS011;54731;42.600;23.476;2023-10-31T09:30:44;8.67;;;4.70;;
67941;SDS011;54731;42.600;23.476;2023-10-31T09:33:10;11.75;;;4.65;;
67941;SDS011;54731;42.600;23.476;2023-10-31T09:35:35;10.97;;;5.17;;
67941;SDS011;54731;42.600;23.476;2023-10-31T09:38:00;10.67;;;4.30;;
67941;SDS011;54731;42.600;23.476;2023-10-31T09:40:26;8.20;;;4.17;;
67941;SDS011;54731;42.600;23.476;2023-10-31T09:42:51;10.43;;;3.97;;
67941;SDS011;54731;42.600;23.476;2023-10-31T09:45:17;8.90;;;4.20;;
67941;SDS011;54731;42.600;23.476;2023-10-31T09:47:42;10.68;;;3.83;;
67941;SDS011;54731;42.600;23.476;2023-10-31T09:50:08;7.80;;;4.07;;
67941;SDS011;54731;42.600;23.476;2023-10-31T09:52:34;13.35;;;4.72;;
67941;SDS011;54731;42.600;23.476;2023-10-31T09:55:00;8.57;;;3.42;;
67941;SDS011;54731;42.600;23.476;2023-10-31T09:57:26;10.80;;;3.33;;
67941;SDS011;54731;42.600;23.476;2023-10-31T09:59:51;12.57;;;3.90;;
67941;SDS011;54731;42.600;23.476;2023-10-31T10:02:17;12.75;;;4.35;;
67941;SDS011;54731;42.600;23.476;2023-10-31T10:04:42;8.60;;;3.47;;
67941;SDS011;54731;42.600;23.476;2023-10-31T10:07:07;8.50;;;3.53;;
67941;SDS011;54731;42.600;23.476;2023-10-31T10:09:33;7.47;;;3.63;;
67941;SDS011;54731;42.600;23.476;2023-10-31T10:11:58;9.93;;;3.93;;
67941;SDS011;54731;42.600;23.476;2023-10-31T10:14:25;13.73;;;3.70;;
67941;SDS011;54731;42.600;23.476;2023-10-31T10:16:51;12.50;;;4.00;;
67941;SDS011;54731;42.600;23.476;2023-10-31T10:19:20;7.13;;;3.80;;
67941;SDS011;54731;42.600;23.476;2023-10-31T10:21:53;9.60;;;3.27;;
67941;SDS011;54731;42.600;23.476;2023-10-31T10:24:20;8.05;;;3.50;;
67941;SDS011;54731;42.600;23.476;2023-10-31T10:26:46;10.75;;;3.40;;
67941;SDS011;54731;42.600;23.476;2023-10-31T10:29:12;9.30;;;3.67;;
67941;SDS011;54731;42.600;23.476;2023-10-31T10:31:37;9.75;;;3.53;;
67941;SDS011;54731;42.600;23.476;2023-10-31T10:34:02;12.20;;;3.10;;
67941;SDS011;54731;42.600;23.476;2023-10-31T10:36:28;6.63;;;3.17;;
67941;SDS011;54731;42.600;23.476;2023-10-31T10:38:56;6.47;;;2.80;;
67941;SDS011;54731;42.600;23.476;2023-10-31T10:41:23;7.10;;;2.97;;
67941;SDS011;54731;42.600;23.476;2023-10-31T10:43:50;11.55;;;3.20;;
67941;SDS011;54731;42.600;23.476;2023-10-31T10:46:30;8.80;;;2.70;;
67941;SDS011;54731;42.600;23.476;2023-10-31T10:48:58;4.80;;;2.50;;
67941;SDS011;54731;42.600;23.476;2023-10-31T10:51:45;7.00;;;3.05;;
67941;SDS011;54731;42.600;23.476;2023-10-31T10:54:19;9.07;;;2.90;;
67941;SDS011;54731;42.600;23.476;2023-10-31T10:57:09;10.35;;;2.88;;
67941;SDS011;54731;42.600;23.476;2023-10-31T10:59:47;11.88;;;2.88;;
67941;SDS011;54731;42.600;23.476;2023-10-31T11:02:13;10.73;;;2.80;;
67941;SDS011;54731;42.600;23.476;2023-10-31T11:04:39;8.15;;;2.75;;
67941;SDS011;54731;42.600;23.476;2023-10-31T11:07:07;6.75;;;2.75;;
67941;SDS011;54731;42.600;23.476;2023-10-31T11:09:33;6.63;;;2.85;;
67941;SDS011;54731;42.600;23.476;2023-10-31T11:11:59;7.97;;;3.40;;
67941;SDS011;54731;42.600;23.476;2023-10-31T11:14:25;10.00;;;2.78;;
67941;SDS011;54731;42.600;23.476;2023-10-31T11:16:52;8.43;;;2.92;;
67941;SDS011;54731;42.600;23.476;2023-10-31T11:19:19;8.20;;;3.00;;
67941;SDS011;54731;42.600;23.476;2023-10-31T11:21:58;8.50;;;2.90;;
67941;SDS011;54731;42.600;23.476;2023-10-31T11:24:26;11.93;;;2.83;;
67941;SDS011;54731;42.600;23.476;2023-10-31T11:26:53;7.90;;;3.35;;
67941;SDS011;54731;42.600;23.476;2023-10-31T11:29:22;7.00;;;2.97;;
67941;SDS011;54731;42.600;23.476;2023-10-31T11:31:48;8.10;;;3.03;;
67941;SDS011;54731;42.600;23.476;2023-10-31T11:34:15;7.13;;;3.67;;
67941;SDS011;54731;42.600;23.476;2023-10-31T11:36:41;9.80;;;3.70;;
67941;SDS011;54731;42.600;23.476;2023-10-31T11:39:13;6.93;;;3.30;;
67941;SDS011;54731;42.600;23.476;2023-10-31T11:41:40;7.03;;;2.63;;
67941;SDS011;54731;42.600;23.476;2023-10-31T11:44:12;5.95;;;2.33;;
67941;SDS011;54731;42.600;23.476;2023-10-31T11:46:40;7.93;;;2.95;;
67941;SDS011;54731;42.600;23.476;2023-10-31T11:49:05;12.23;;;3.00;;
67941;SDS011;54731;42.600;23.476;2023-10-31T11:51:30;7.80;;;2.87;;
67941;SDS011;54731;42.600;23.476;2023-10-31T11:53:55;8.60;;;2.80;;
67941;SDS011;54731;42.600;23.476;2023-10-31T11:56:21;6.87;;;2.60;;
67941;SDS011;54731;42.600;23.476;2023-10-31T12:01:28;7.72;;;3.45;;
67941;SDS011;54731;42.600;23.476;2023-10-31T12:03:53;7.10;;;3.60;;
67941;SDS011;54731;42.600;23.476;2023-10-31T12:06:19;10.30;;;2.87;;
67941;SDS011;54731;42.600;23.476;2023-10-31T12:08:44;6.87;;;3.13;;
67941;SDS011;54731;42.600;23.476;2023-10-31T12:11:10;10.97;;;3.83;;
67941;SDS011;54731;42.600;23.476;2023-10-31T12:13:41;6.75;;;3.60;;
67941;SDS011;54731;42.600;23.476;2023-10-31T12:16:10;10.73;;;3.70;;
67941;SDS011;54731;42.600;23.476;2023-10-31T12:18:36;8.55;;;3.63;;
67941;SDS011;54731;42.600;23.476;2023-10-31T12:21:02;7.70;;;3.20;;
67941;SDS011;54731;42.600;23.476;2023-10-31T12:23:27;8.68;;;3.38;;
67941;SDS011;54731;42.600;23.476;2023-10-31T12:25:53;9.10;;;3.37;;
67941;SDS011;54731;42.600;23.476;2023-10-31T12:28:19;6.03;;;3.63;;
67941;SDS011;54731;42.600;23.476;2023-10-31T12:30:48;12.10;;;3.45;;
67941;SDS011;54731;42.600;23.476;2023-10-31T12:33:15;7.90;;;3.03;;
67941;SDS011;54731;42.600;23.476;2023-10-31T12:35:41;9.73;;;4.13;;
67941;SDS011;54731;42.600;23.476;2023-10-31T12:38:10;11.15;;;4.40;;
67941;SDS011;54731;42.600;23.476;2023-10-31T12:40:36;11.90;;;4.80;;
67941;SDS011;54731;42.600;23.476;2023-10-31T12:43:02;12.32;;;5.07;;
67941;SDS011;54731;42.600;23.476;2023-10-31T12:45:28;13.43;;;4.93;;
67941;SDS011;54731;42.600;23.476;2023-10-31T12:47:59;10.10;;;4.80;;
67941;SDS011;54731;42.600;23.476;2023-10-31T12:50:36;12.13;;;4.90;;
67941;SDS011;54731;42.600;23.476;2023-10-31T12:53:02;12.35;;;5.20;;
67941;SDS011;54731;42.600;23.476;2023-10-31T12:55:27;10.27;;;4.60;;
67941;SDS011;54731;42.600;23.476;2023-10-31T12:57:52;12.07;;;3.90;;
67941;SDS011;54731;42.600;23.476;2023-10-31T13:00:19;10.23;;;3.67;;
67941;SDS011;54731;42.600;23.476;2023-10-31T13:02:44;9.93;;;4.03;;
67941;SDS011;54731;42.600;23.476;2023-10-31T13:05:10;10.73;;;4.70;;
67941;SDS011;54731;42.600;23.476;2023-10-31T13:07:37;11.35;;;5.70;;
67941;SDS011;54731;42.600;23.476;2023-10-31T13:10:02;15.90;;;5.90;;
67941;SDS011;54731;42.600;23.476;2023-10-31T13:12:29;23.55;;;5.10;;
67941;SDS011;54731;42.600;23.476;2023-10-31T13:14:55;59.28;;;7.88;;
67941;SDS011;54731;42.600;23.476;2023-10-31T13:17:20;21.90;;;6.00;;
67941;SDS011;54731;42.600;23.476;2023-10-31T13:19:46;13.30;;;5.17;;
67941;SDS011;54731;42.600;23.476;2023-10-31T13:22:11;14.00;;;5.73;;
67941;SDS011;54731;42.600;23.476;2023-10-31T13:24:36;14.60;;;5.57;;
67941;SDS011;54731;42.600;23.476;2023-10-31T13:27:02;13.20;;;5.00;;
67941;SDS011;54731;42.600;23.476;2023-10-31T13:29:27;15.27;;;5.63;;
67941;SDS011;54731;42.600;23.476;2023-10-31T13:31:52;19.97;;;5.70;;
67941;SDS011;54731;42.600;23.476;2023-10-31T13:34:18;11.63;;;3.70;;
67941;SDS011;54731;42.600;23.476;2023-10-31T13:36:43;8.38;;;3.05;;
67941;SDS011;54731;42.600;23.476;2023-10-31T13:39:08;7.05;;;2.67;;
67941;SDS011;54731;42.600;23.476;2023-10-31T13:41:34;8.33;;;2.40;;
67941;SDS011;54731;42.600;23.476;2023-10-31T13:43:59;7.93;;;2.10;;
67941;SDS011;54731;42.600;23.476;2023-10-31T13:46:25;5.43;;;1.80;;
67941;SDS011;54731;42.600;23.476;2023-10-31T13:48:50;6.97;;;1.77;;
67941;SDS011;54731;42.600;23.476;2023-10-31T13:51:15;9.07;;;2.10;;
67941;SDS011;54731;42.600;23.476;2023-10-31T13:53:41;5.17;;;1.87;;
67941;SDS011;54731;42.600;23.476;2023-10-31T13:56:06;6.43;;;1.90;;
67941;SDS011;54731;42.600;23.476;2023-10-31T13:58:32;5.60;;;2.30;;
67941;SDS011;54731;42.600;23.476;2023-10-31T14:00:57;7.63;;;2.03;;
67941;SDS011;54731;42.600;23.476;2023-10-31T14:03:22;3.95;;;2.22;;
67941;SDS011;54731;42.600;23.476;2023-10-31T14:05:47;4.40;;;2.30;;
67941;SDS011;54731;42.600;23.476;2023-10-31T14:08:13;4.53;;;2.10;;
67941;SDS011;54731;42.600;23.476;2023-10-31T14:10:38;6.13;;;2.40;;
67941;SDS011;54731;42.600;23.476;2023-10-31T14:13:03;7.00;;;2.67;;
67941;SDS011;54731;42.600;23.476;2023-10-31T14:15:29;6.73;;;2.93;;
67941;SDS011;54731;42.600;23.476;2023-10-31T14:17:54;27.80;;;2.90;;
67941;SDS011;54731;42.600;23.476;2023-10-31T14:20:19;9.30;;;2.60;;
67941;SDS011;54731;42.600;23.476;2023-10-31T14:22:48;6.33;;;2.93;;
67941;SDS011;54731;42.600;23.476;2023-10-31T14:25:14;9.38;;;3.20;;
67941;SDS011;54731;42.600;23.476;2023-10-31T14:27:39;7.65;;;2.63;;
67941;SDS011;54731;42.600;23.476;2023-10-31T14:30:05;10.00;;;2.67;;
67941;SDS011;54731;42.600;23.476;2023-10-31T14:32:31;6.82;;;2.83;;
67941;SDS011;54731;42.600;23.476;2023-10-31T14:34:56;7.40;;;2.60;;
67941;SDS011;54731;42.600;23.476;2023-10-31T14:37:21;5.97;;;3.27;;
67941;SDS011;54731;42.600;23.476;2023-10-31T14:39:46;5.10;;;2.87;;